sensor_id;sensor_type;location;lat;lon;timestamp;P1;durP1;ratioP1;P2;durP2;ratioP2
54360;SDS011;40258;53.936;27.540;2022-11-09T00:14:23;21.95;;;12.40;;
54360;SDS011;40258;53.936;27.540;2022-11-09T00:20:43;20.20;;;14.00;;
54360;SDS011;40258;53.936;27.540;2022-11-09T00:38:56;18.25;;;11.80;;
54360;SDS011;40258;53.936;27.540;2022-11-09T00:45:16;13.55;;;10.40;;
54360;SDS011;40258;53.936;27.540;2022-11-09T01:03:52;17.80;;;12.55;;
54360;SDS011;40258;53.936;27.540;2022-11-09T01:10:13;14.90;;;11.20;;
54360;SDS011;40258;53.936;27.540;2022-11-09T01:28:27;16.05;;;11.80;;
54360;SDS011;40258;53.936;27.540;2022-11-09T01:34:47;19.80;;;12.40;;
54360;SDS011;40258;53.936;27.540;2022-11-09T01:53:00;23.85;;;14.20;;
54360;SDS011;40258;53.936;27.540;2022-11-09T01:59:34;32.05;;;13.95;;
54360;SDS011;40258;53.936;27.540;2022-11-09T02:18:01;20.25;;;12.85;;
54360;SDS011;40258;53.936;27.540;2022-11-09T02:24:25;20.65;;;15.05;;
54360;SDS011;40258;53.936;27.540;2022-11-09T02:42:42;20.30;;;11.65;;
54360;SDS011;40258;53.936;27.540;2022-11-09T02:49:02;17.95;;;12.85;;
54360;SDS011;40258;53.936;27.540;2022-11-09T03:07:38;17.95;;;13.30;;
54360;SDS011;40258;53.936;27.540;2022-11-09T03:13:58;19.45;;;13.20;;
54360;SDS011;40258;53.936;27.540;2022-11-09T03:32:11;30.95;;;13.85;;
54360;SDS011;40258;53.936;27.540;2022-11-09T03:38:32;30.35;;;14.15;;
54360;SDS011;40258;53.936;27.540;2022-11-09T03:56:44;24.40;;;15.95;;
54360;SDS011;40258;53.936;27.540;2022-11-09T04:03:16;28.35;;;18.65;;
54360;SDS011;40258;53.936;27.540;2022-11-09T04:21:39;23.60;;;15.90;;
54360;SDS011;40258;53.936;27.540;2022-11-09T04:27:59;27.50;;;18.65;;
54360;SDS011;40258;53.936;27.540;2022-11-09T04:46:11;26.20;;;16.20;;
54360;SDS011;40258;53.936;27.540;2022-11-09T04:52:32;26.10;;;16.40;;
54360;SDS011;40258;53.936;27.540;2022-11-09T05:11:08;27.45;;;18.45;;
54360;SDS011;40258;53.936;27.540;2022-11-09T05:17:28;35.15;;;21.10;;
54360;SDS011;40258;53.936;27.540;2022-11-09T05:35:52;47.00;;;19.50;;
54360;SDS011;40258;53.936;27.540;2022-11-09T05:42:12;35.90;;;20.95;;
54360;SDS011;40258;53.936;27.540;2022-11-09T06:00:24;40.70;;;17.45;;
54360;SDS011;40258;53.936;27.540;2022-11-09T06:06:58;40.55;;;18.60;;
54360;SDS011;40258;53.936;27.540;2022-11-09T06:25:22;31.35;;;16.25;;
54360;SDS011;40258;53.936;27.540;2022-11-09T06:31:42;35.85;;;20.60;;
54360;SDS011;40258;53.936;27.540;2022-11-09T06:49:54;29.55;;;17.10;;
54360;SDS011;40258;53.936;27.540;2022-11-09T06:56:14;29.95;;;15.25;;
54360;SDS011;40258;53.936;27.540;2022-11-09T07:14:50;20.70;;;13.15;;
54360;SDS011;40258;53.936;27.540;2022-11-09T07:21:11;30.25;;;16.55;;
54360;SDS011;40258;53.936;27.540;2022-11-09T07:45:14;29.15;;;16.15;;
54360;SDS011;40258;53.936;27.540;2022-11-09T08:03:28;19.50;;;14.40;;
54360;SDS011;40258;53.936;27.540;2022-11-09T08:10:00;20.20;;;12.95;;
54360;SDS011;40258;53.936;27.540;2022-11-09T08:28:23;22.95;;;12.40;;
54360;SDS011;40258;53.936;27.540;2022-11-09T08:34:46;29.45;;;17.10;;
54360;SDS011;40258;53.936;27.540;2022-11-09T08:52:58;23.25;;;13.10;;
54360;SDS011;40258;53.936;27.540;2022-11-09T08:59:18;21.50;;;11.95;;
54360;SDS011;40258;53.936;27.540;2022-11-09T09:17:54;20.90;;;11.95;;
54360;SDS011;40258;53.936;27.540;2022-11-09T09:24:13;16.55;;;9.15;;
54360;SDS011;40258;53.936;27.540;2022-11-09T09:42:30;16.95;;;9.75;;
54360;SDS011;40258;53.936;27.540;2022-11-09T09:48:53;13.50;;;8.55;;
54360;SDS011;40258;53.936;27.540;2022-11-09T10:07:11;13.45;;;7.90;;
54360;SDS011;40258;53.936;27.540;2022-11-09T10:10:30;10.75;;;7.05;;
54360;SDS011;40258;53.936;27.540;2022-11-09T10:27:27;13.50;;;8.45;;
54360;SDS011;40258;53.936;27.540;2022-11-09T10:32:26;12.80;;;8.25;;
54360;SDS011;40258;53.936;27.540;2022-11-09T10:51:30;12.75;;;7.20;;
54360;SDS011;40258;53.936;27.540;2022-11-09T10:58:14;18.65;;;8.85;;
54360;SDS011;40258;53.936;27.540;2022-11-09T11:10:19;10.15;;;5.95;;
54360;SDS011;40258;53.936;27.540;2022-11-09T11:14:28;12.25;;;7.00;;
54360;SDS011;40258;53.936;27.540;2022-11-09T11:49:40;12.25;;;7.00;;
54360;SDS011;40258;53.936;27.540;2022-11-09T12:00:10;12.85;;;8.00;;
54360;SDS011;40258;53.936;27.540;2022-11-09T12:03:19;20.56;;;11.23;;
54360;SDS011;40258;53.936;27.540;2022-11-09T12:07:25;13.05;;;8.55;;
54360;SDS011;40258;53.936;27.540;2022-11-09T12:46:33;17.83;;;11.50;;
54360;SDS011;40258;53.936;27.540;2022-11-09T12:49:49;14.30;;;8.05;;
54360;SDS011;40258;53.936;27.540;2022-11-09T13:30:40;15.05;;;9.10;;
54360;SDS011;40258;53.936;27.540;2022-11-09T13:47:44;23.80;;;11.25;;
54360;SDS011;40258;53.936;27.540;2022-11-09T14:12:49;16.10;;;9.40;;
54360;SDS011;40258;53.936;27.540;2022-11-09T14:16:56;17.45;;;8.75;;
54360;SDS011;40258;53.936;27.540;2022-11-09T14:30:16;22.98;;;12.43;;
54360;SDS011;40258;53.936;27.540;2022-11-09T14:33:18;21.17;;;12.07;;
54360;SDS011;40258;53.936;27.540;2022-11-09T14:36:09;22.20;;;12.40;;
54360;SDS011;40258;53.936;27.540;2022-11-09T14:38:57;21.92;;;11.77;;
54360;SDS011;40258;53.936;27.540;2022-11-09T14:41:45;23.92;;;12.80;;
54360;SDS011;40258;53.936;27.540;2022-11-09T14:44:32;21.48;;;13.00;;
54360;SDS011;40258;53.936;27.540;2022-11-09T14:47:25;24.57;;;13.60;;
54360;SDS011;40258;53.936;27.540;2022-11-09T14:53:52;21.27;;;12.07;;
54360;SDS011;40258;53.936;27.540;2022-11-09T14:56:40;22.13;;;12.02;;
54360;SDS011;40258;53.936;27.540;2022-11-09T14:59:28;20.60;;;12.40;;
54360;SDS011;40258;53.936;27.540;2022-11-09T15:02:17;21.02;;;11.90;;
54360;SDS011;40258;53.936;27.540;2022-11-09T15:05:05;21.48;;;12.07;;
54360;SDS011;40258;53.936;27.540;2022-11-09T15:07:53;24.24;;;13.20;;
54360;SDS011;40258;53.936;27.540;2022-11-09T15:10:42;23.80;;;13.63;;
54360;SDS011;40258;53.936;27.540;2022-11-09T15:13:34;20.67;;;12.27;;
54360;SDS011;40258;53.936;27.540;2022-11-09T15:16:23;25.27;;;14.33;;
54360;SDS011;40258;53.936;27.540;2022-11-09T15:19:21;21.63;;;13.05;;
54360;SDS011;40258;53.936;27.540;2022-11-09T15:25:52;21.87;;;14.27;;
54360;SDS011;40258;53.936;27.540;2022-11-09T15:28:43;26.13;;;14.82;;
54360;SDS011;40258;53.936;27.540;2022-11-09T15:31:31;23.95;;;14.23;;
54360;SDS011;40258;53.936;27.540;2022-11-09T15:34:20;23.85;;;14.65;;
54360;SDS011;40258;53.936;27.540;2022-11-09T15:40:32;23.98;;;14.45;;
54360;SDS011;40258;53.936;27.540;2022-11-09T15:43:20;22.98;;;14.77;;
54360;SDS011;40258;53.936;27.540;2022-11-09T15:46:08;22.60;;;13.95;;
54360;SDS011;40258;53.936;27.540;2022-11-09T15:48:57;24.98;;;14.65;;
54360;SDS011;40258;53.936;27.540;2022-11-09T15:51:44;26.25;;;14.40;;
54360;SDS011;40258;53.936;27.540;2022-11-09T15:54:31;21.67;;;13.47;;
54360;SDS011;40258;53.936;27.540;2022-11-09T16:00:09;19.77;;;13.15;;
54360;SDS011;40258;53.936;27.540;2022-11-09T16:02:57;20.23;;;12.80;;
54360;SDS011;40258;53.936;27.540;2022-11-09T16:05:44;23.60;;;14.25;;
54360;SDS011;40258;53.936;27.540;2022-11-09T16:08:31;23.80;;;14.65;;
54360;SDS011;40258;53.936;27.540;2022-11-09T16:11:19;20.35;;;13.27;;
54360;SDS011;40258;53.936;27.540;2022-11-09T16:14:06;23.63;;;13.55;;
54360;SDS011;40258;53.936;27.540;2022-11-09T16:16:55;22.73;;;13.68;;
54360;SDS011;40258;53.936;27.540;2022-11-09T16:19:42;24.02;;;13.85;;
54360;SDS011;40258;53.936;27.540;2022-11-09T16:22:29;27.38;;;14.45;;
54360;SDS011;40258;53.936;27.540;2022-11-09T16:25:16;23.00;;;14.10;;
54360;SDS011;40258;53.936;27.540;2022-11-09T16:28:03;23.58;;;14.50;;
54360;SDS011;40258;53.936;27.540;2022-11-09T16:30:51;22.42;;;14.13;;
54360;SDS011;40258;53.936;27.540;2022-11-09T16:33:40;22.15;;;13.32;;
54360;SDS011;40258;53.936;27.540;2022-11-09T16:36:28;20.33;;;13.18;;
54360;SDS011;40258;53.936;27.540;2022-11-09T16:39:15;21.83;;;13.88;;
54360;SDS011;40258;53.936;27.540;2022-11-09T16:42:05;23.60;;;14.10;;
54360;SDS011;40258;53.936;27.540;2022-11-09T16:44:55;25.17;;;14.60;;
54360;SDS011;40258;53.936;27.540;2022-11-09T16:47:45;21.33;;;13.55;;
54360;SDS011;40258;53.936;27.540;2022-11-09T16:50:36;20.05;;;12.98;;
54360;SDS011;40258;53.936;27.540;2022-11-09T16:53:24;19.85;;;13.50;;
54360;SDS011;40258;53.936;27.540;2022-11-09T16:56:12;19.20;;;11.65;;
54360;SDS011;40258;53.936;27.540;2022-11-09T16:59:00;16.08;;;10.23;;
54360;SDS011;40258;53.936;27.540;2022-11-09T17:01:52;23.38;;;13.13;;
54360;SDS011;40258;53.936;27.540;2022-11-09T17:04:41;20.60;;;12.43;;
54360;SDS011;40258;53.936;27.540;2022-11-09T17:07:31;22.02;;;12.85;;
54360;SDS011;40258;53.936;27.540;2022-11-09T17:10:25;23.17;;;12.90;;
54360;SDS011;40258;53.936;27.540;2022-11-09T17:13:12;20.38;;;12.63;;
54360;SDS011;40258;53.936;27.540;2022-11-09T17:16:03;20.15;;;12.02;;
54360;SDS011;40258;53.936;27.540;2022-11-09T17:18:53;19.75;;;12.40;;
54360;SDS011;40258;53.936;27.540;2022-11-09T17:21:46;20.48;;;12.10;;
54360;SDS011;40258;53.936;27.540;2022-11-09T17:24:36;21.55;;;12.43;;
54360;SDS011;40258;53.936;27.540;2022-11-09T17:27:26;20.75;;;11.85;;
54360;SDS011;40258;53.936;27.540;2022-11-09T17:30:15;19.70;;;12.05;;
54360;SDS011;40258;53.936;27.540;2022-11-09T17:33:02;23.95;;;12.52;;
54360;SDS011;40258;53.936;27.540;2022-11-09T17:35:56;19.42;;;11.75;;
54360;SDS011;40258;53.936;27.540;2022-11-09T17:38:47;21.52;;;12.50;;
54360;SDS011;40258;53.936;27.540;2022-11-09T17:41:37;21.92;;;13.18;;
54360;SDS011;40258;53.936;27.540;2022-11-09T17:44:27;22.80;;;12.77;;
54360;SDS011;40258;53.936;27.540;2022-11-09T17:47:18;21.50;;;13.10;;
54360;SDS011;40258;53.936;27.540;2022-11-09T17:50:10;24.05;;;12.70;;
54360;SDS011;40258;53.936;27.540;2022-11-09T17:52:57;20.00;;;13.18;;
54360;SDS011;40258;53.936;27.540;2022-11-09T17:55:47;18.88;;;12.82;;
54360;SDS011;40258;53.936;27.540;2022-11-09T17:58:39;20.75;;;12.18;;
54360;SDS011;40258;53.936;27.540;2022-11-09T18:01:29;21.80;;;13.45;;
54360;SDS011;40258;53.936;27.540;2022-11-09T18:04:33;22.75;;;12.85;;
54360;SDS011;40258;53.936;27.540;2022-11-09T18:07:20;25.00;;;13.43;;
54360;SDS011;40258;53.936;27.540;2022-11-09T18:10:09;22.08;;;12.20;;
54360;SDS011;40258;53.936;27.540;2022-11-09T18:15:54;20.98;;;12.38;;
54360;SDS011;40258;53.936;27.540;2022-11-09T18:18:47;19.45;;;12.70;;
54360;SDS011;40258;53.936;27.540;2022-11-09T18:21:38;19.02;;;12.13;;
54360;SDS011;40258;53.936;27.540;2022-11-09T18:24:35;22.40;;;13.10;;
54360;SDS011;40258;53.936;27.540;2022-11-09T18:30:19;20.90;;;13.02;;
54360;SDS011;40258;53.936;27.540;2022-11-09T18:46:55;20.92;;;11.95;;
54360;SDS011;40258;53.936;27.540;2022-11-09T18:54:10;15.10;;;8.90;;
54360;SDS011;40258;53.936;27.540;2022-11-09T18:57:00;24.00;;;12.68;;
54360;SDS011;40258;53.936;27.540;2022-11-09T18:59:53;18.88;;;12.00;;
54360;SDS011;40258;53.936;27.540;2022-11-09T19:02:42;19.98;;;13.02;;
54360;SDS011;40258;53.936;27.540;2022-11-09T19:05:31;21.67;;;14.45;;
54360;SDS011;40258;53.936;27.540;2022-11-09T19:08:26;22.65;;;14.30;;
54360;SDS011;40258;53.936;27.540;2022-11-09T19:11:32;21.92;;;12.93;;
54360;SDS011;40258;53.936;27.540;2022-11-09T19:14:25;21.50;;;12.43;;
54360;SDS011;40258;53.936;27.540;2022-11-09T19:17:14;18.88;;;12.32;;
54360;SDS011;40258;53.936;27.540;2022-11-09T19:20:02;24.00;;;12.88;;
54360;SDS011;40258;53.936;27.540;2022-11-09T19:22:53;28.27;;;13.38;;
54360;SDS011;40258;53.936;27.540;2022-11-09T19:25:44;26.67;;;13.88;;
54360;SDS011;40258;53.936;27.540;2022-11-09T19:28:31;22.60;;;14.13;;
54360;SDS011;40258;53.936;27.540;2022-11-09T19:31:19;24.80;;;13.60;;
54360;SDS011;40258;53.936;27.540;2022-11-09T19:34:07;24.10;;;13.18;;
54360;SDS011;40258;53.936;27.540;2022-11-09T19:36:54;24.80;;;13.80;;
54360;SDS011;40258;53.936;27.540;2022-11-09T19:39:41;25.35;;;14.93;;
54360;SDS011;40258;53.936;27.540;2022-11-09T19:42:33;25.60;;;14.63;;
54360;SDS011;40258;53.936;27.540;2022-11-09T19:45:20;25.77;;;14.10;;
54360;SDS011;40258;53.936;27.540;2022-11-09T19:48:06;24.73;;;14.38;;
54360;SDS011;40258;53.936;27.540;2022-11-09T19:50:54;26.27;;;15.88;;
54360;SDS011;40258;53.936;27.540;2022-11-09T19:53:42;25.52;;;15.55;;
54360;SDS011;40258;53.936;27.540;2022-11-09T19:56:34;28.25;;;16.13;;
54360;SDS011;40258;53.936;27.540;2022-11-09T19:59:25;26.10;;;16.55;;
54360;SDS011;40258;53.936;27.540;2022-11-09T20:02:12;28.48;;;16.55;;
54360;SDS011;40258;53.936;27.540;2022-11-09T20:04:58;29.43;;;15.87;;
54360;SDS011;40258;53.936;27.540;2022-11-09T20:07:45;28.42;;;16.45;;
54360;SDS011;40258;53.936;27.540;2022-11-09T20:10:34;31.02;;;17.30;;
54360;SDS011;40258;53.936;27.540;2022-11-09T20:13:21;33.22;;;17.58;;
54360;SDS011;40258;53.936;27.540;2022-11-09T20:16:10;31.83;;;19.23;;
54360;SDS011;40258;53.936;27.540;2022-11-09T20:18:56;33.00;;;19.23;;
54360;SDS011;40258;53.936;27.540;2022-11-09T20:21:43;33.80;;;19.00;;
54360;SDS011;40258;53.936;27.540;2022-11-09T20:24:30;35.08;;;20.33;;
54360;SDS011;40258;53.936;27.540;2022-11-09T20:27:17;34.25;;;17.75;;
54360;SDS011;40258;53.936;27.540;2022-11-09T20:30:04;29.23;;;19.43;;
54360;SDS011;40258;53.936;27.540;2022-11-09T20:32:53;28.55;;;17.65;;
54360;SDS011;40258;53.936;27.540;2022-11-09T20:35:40;31.33;;;18.08;;
54360;SDS011;40258;53.936;27.540;2022-11-09T20:38:26;31.40;;;18.47;;
54360;SDS011;40258;53.936;27.540;2022-11-09T20:41:13;29.13;;;17.85;;
54360;SDS011;40258;53.936;27.540;2022-11-09T20:43:59;29.75;;;18.33;;
54360;SDS011;40258;53.936;27.540;2022-11-09T20:46:46;34.43;;;19.00;;
54360;SDS011;40258;53.936;27.540;2022-11-09T20:49:34;31.70;;;19.27;;
54360;SDS011;40258;53.936;27.540;2022-11-09T20:52:21;31.20;;;17.75;;
54360;SDS011;40258;53.936;27.540;2022-11-09T20:55:08;32.53;;;17.87;;
54360;SDS011;40258;53.936;27.540;2022-11-09T20:57:54;30.63;;;18.87;;
54360;SDS011;40258;53.936;27.540;2022-11-09T21:00:41;30.77;;;18.83;;
54360;SDS011;40258;53.936;27.540;2022-11-09T21:03:28;30.55;;;18.50;;
54360;SDS011;40258;53.936;27.540;2022-11-09T21:06:16;30.97;;;19.40;;
54360;SDS011;40258;53.936;27.540;2022-11-09T21:09:03;30.02;;;18.60;;
54360;SDS011;40258;53.936;27.540;2022-11-09T21:11:49;34.15;;;19.30;;
54360;SDS011;40258;53.936;27.540;2022-11-09T21:14:55;32.53;;;18.50;;
54360;SDS011;40258;53.936;27.540;2022-11-09T21:17:42;33.87;;;18.87;;
54360;SDS011;40258;53.936;27.540;2022-11-09T21:20:29;31.27;;;18.63;;
54360;SDS011;40258;53.936;27.540;2022-11-09T21:23:17;30.17;;;18.80;;
54360;SDS011;40258;53.936;27.540;2022-11-09T21:26:21;31.50;;;17.65;;
54360;SDS011;40258;53.936;27.540;2022-11-09T21:29:25;34.47;;;19.05;;
54360;SDS011;40258;53.936;27.540;2022-11-09T21:32:29;34.28;;;19.50;;
54360;SDS011;40258;53.936;27.540;2022-11-09T21:35:15;30.60;;;19.17;;
54360;SDS011;40258;53.936;27.540;2022-11-09T21:38:02;29.00;;;18.57;;
54360;SDS011;40258;53.936;27.540;2022-11-09T21:40:50;33.13;;;18.95;;
54360;SDS011;40258;53.936;27.540;2022-11-09T21:43:36;28.10;;;17.65;;
54360;SDS011;40258;53.936;27.540;2022-11-09T21:46:23;31.45;;;18.90;;
54360;SDS011;40258;53.936;27.540;2022-11-09T21:49:10;31.77;;;19.58;;
54360;SDS011;40258;53.936;27.540;2022-11-09T21:54:43;31.35;;;19.38;;
54360;SDS011;40258;53.936;27.540;2022-11-09T21:57:32;32.40;;;19.00;;
54360;SDS011;40258;53.936;27.540;2022-11-09T22:00:18;32.38;;;18.98;;
54360;SDS011;40258;53.936;27.540;2022-11-09T22:03:05;35.63;;;20.13;;
54360;SDS011;40258;53.936;27.540;2022-11-09T22:05:51;31.27;;;20.00;;
54360;SDS011;40258;53.936;27.540;2022-11-09T22:08:38;34.15;;;19.25;;
54360;SDS011;40258;53.936;27.540;2022-11-09T22:11:25;35.05;;;20.45;;
54360;SDS011;40258;53.936;27.540;2022-11-09T22:14:26;34.45;;;19.85;;
54360;SDS011;40258;53.936;27.540;2022-11-09T22:17:30;33.55;;;19.52;;
54360;SDS011;40258;53.936;27.540;2022-11-09T22:20:17;40.38;;;22.05;;
54360;SDS011;40258;53.936;27.540;2022-11-09T22:23:22;34.17;;;20.45;;
54360;SDS011;40258;53.936;27.540;2022-11-09T22:26:08;33.45;;;20.08;;
54360;SDS011;40258;53.936;27.540;2022-11-09T22:28:55;31.92;;;20.35;;
54360;SDS011;40258;53.936;27.540;2022-11-09T22:31:43;41.27;;;20.73;;
54360;SDS011;40258;53.936;27.540;2022-11-09T22:34:29;37.88;;;20.05;;
54360;SDS011;40258;53.936;27.540;2022-11-09T22:37:16;34.73;;;21.40;;
54360;SDS011;40258;53.936;27.540;2022-11-09T22:40:03;36.73;;;20.53;;
54360;SDS011;40258;53.936;27.540;2022-11-09T22:42:53;34.60;;;20.25;;
54360;SDS011;40258;53.936;27.540;2022-11-09T22:45:40;36.22;;;20.73;;
54360;SDS011;40258;53.936;27.540;2022-11-09T22:48:28;33.33;;;20.58;;
54360;SDS011;40258;53.936;27.540;2022-11-09T22:51:15;35.92;;;21.60;;
54360;SDS011;40258;53.936;27.540;2022-11-09T22:54:01;35.60;;;22.08;;
54360;SDS011;40258;53.936;27.540;2022-11-09T22:56:48;35.22;;;20.95;;
54360;SDS011;40258;53.936;27.540;2022-11-09T22:59:35;35.50;;;21.53;;
54360;SDS011;40258;53.936;27.540;2022-11-09T23:02:21;38.60;;;21.47;;
54360;SDS011;40258;53.936;27.540;2022-11-09T23:05:09;36.23;;;21.43;;
54360;SDS011;40258;53.936;27.540;2022-11-09T23:10:42;36.70;;;22.58;;
54360;SDS011;40258;53.936;27.540;2022-11-09T23:13:28;42.38;;;23.15;;
54360;SDS011;40258;53.936;27.540;2022-11-09T23:16:15;39.13;;;22.33;;
54360;SDS011;40258;53.936;27.540;2022-11-09T23:19:02;36.77;;;21.60;;
54360;SDS011;40258;53.936;27.540;2022-11-09T23:21:49;44.00;;;23.63;;
54360;SDS011;40258;53.936;27.540;2022-11-09T23:24:35;37.97;;;22.05;;
54360;SDS011;40258;53.936;27.540;2022-11-09T23:27:39;35.78;;;21.85;;
54360;SDS011;40258;53.936;27.540;2022-11-09T23:30:26;35.33;;;21.20;;
54360;SDS011;40258;53.936;27.540;2022-11-09T23:33:12;38.83;;;23.30;;
54360;SDS011;40258;53.936;27.540;2022-11-09T23:35:59;40.50;;;22.37;;
54360;SDS011;40258;53.936;27.540;2022-11-09T23:38:48;37.03;;;21.50;;
54360;SDS011;40258;53.936;27.540;2022-11-09T23:41:35;39.10;;;22.27;;
54360;SDS011;40258;53.936;27.540;2022-11-09T23:44:21;40.80;;;24.88;;
54360;SDS011;40258;53.936;27.540;2022-11-09T23:47:08;39.90;;;23.33;;
54360;SDS011;40258;53.936;27.540;2022-11-09T23:49:54;40.60;;;23.33;;
54360;SDS011;40258;53.936;27.540;2022-11-09T23:52:41;38.95;;;21.50;;
54360;SDS011;40258;53.936;27.540;2022-11-09T23:55:29;41.33;;;23.03;;
54360;SDS011;40258;53.936;27.540;2022-11-09T23:58:16;41.13;;;22.75;;
